sensor_id;sensor_type;location;lat;lon;timestamp;P1;durP1;ratioP1;P2;durP2;ratioP2
67108;SDS011;54027;50.786;7.058;2023-01-19T00:01:49;13.98;;;7.13;;
67108;SDS011;54027;50.786;7.058;2023-01-19T00:04:15;13.45;;;7.78;;
67108;SDS011;54027;50.786;7.058;2023-01-19T00:06:40;16.15;;;7.85;;
67108;SDS011;54027;50.786;7.058;2023-01-19T00:09:05;12.75;;;8.27;;
67108;SDS011;54027;50.786;7.058;2023-01-19T00:11:31;15.13;;;8.88;;
67108;SDS011;54027;50.786;7.058;2023-01-19T00:13:56;14.55;;;7.93;;
67108;SDS011;54027;50.786;7.058;2023-01-19T00:16:23;14.60;;;8.20;;
67108;SDS011;54027;50.786;7.058;2023-01-19T00:18:49;15.98;;;8.13;;
67108;SDS011;54027;50.786;7.058;2023-01-19T00:21:16;14.35;;;7.63;;
67108;SDS011;54027;50.786;7.058;2023-01-19T00:23:42;15.88;;;8.50;;
67108;SDS011;54027;50.786;7.058;2023-01-19T00:26:11;15.18;;;8.32;;
67108;SDS011;54027;50.786;7.058;2023-01-19T00:28:37;14.25;;;7.88;;
67108;SDS011;54027;50.786;7.058;2023-01-19T00:31:03;19.10;;;9.52;;
67108;SDS011;54027;50.786;7.058;2023-01-19T00:33:28;15.02;;;8.10;;
67108;SDS011;54027;50.786;7.058;2023-01-19T00:35:53;14.35;;;8.43;;
67108;SDS011;54027;50.786;7.058;2023-01-19T00:38:19;21.85;;;10.00;;
67108;SDS011;54027;50.786;7.058;2023-01-19T00:40:45;17.33;;;9.60;;
67108;SDS011;54027;50.786;7.058;2023-01-19T00:43:11;14.77;;;9.02;;
67108;SDS011;54027;50.786;7.058;2023-01-19T00:45:37;14.10;;;9.02;;
67108;SDS011;54027;50.786;7.058;2023-01-19T00:48:02;16.50;;;8.50;;
67108;SDS011;54027;50.786;7.058;2023-01-19T00:50:28;17.58;;;8.90;;
67108;SDS011;54027;50.786;7.058;2023-01-19T00:52:55;18.90;;;9.98;;
67108;SDS011;54027;50.786;7.058;2023-01-19T00:55:22;16.85;;;8.75;;
67108;SDS011;54027;50.786;7.058;2023-01-19T00:57:48;23.55;;;10.60;;
67108;SDS011;54027;50.786;7.058;2023-01-19T01:00:15;17.75;;;10.32;;
67108;SDS011;54027;50.786;7.058;2023-01-19T01:02:42;16.52;;;9.82;;
67108;SDS011;54027;50.786;7.058;2023-01-19T01:05:08;16.85;;;9.57;;
67108;SDS011;54027;50.786;7.058;2023-01-19T01:07:34;21.27;;;9.43;;
67108;SDS011;54027;50.786;7.058;2023-01-19T01:10:09;17.60;;;9.90;;
67108;SDS011;54027;50.786;7.058;2023-01-19T01:12:37;15.40;;;9.05;;
67108;SDS011;54027;50.786;7.058;2023-01-19T01:15:03;19.58;;;10.27;;
67108;SDS011;54027;50.786;7.058;2023-01-19T01:17:31;14.30;;;8.30;;
67108;SDS011;54027;50.786;7.058;2023-01-19T01:19:57;16.65;;;10.35;;
67108;SDS011;54027;50.786;7.058;2023-01-19T01:22:22;19.55;;;9.88;;
67108;SDS011;54027;50.786;7.058;2023-01-19T01:24:48;16.92;;;9.55;;
67108;SDS011;54027;50.786;7.058;2023-01-19T01:27:13;15.57;;;8.77;;
67108;SDS011;54027;50.786;7.058;2023-01-19T01:29:38;18.48;;;9.43;;
67108;SDS011;54027;50.786;7.058;2023-01-19T01:32:05;16.77;;;9.40;;
67108;SDS011;54027;50.786;7.058;2023-01-19T01:34:31;17.83;;;10.00;;
67108;SDS011;54027;50.786;7.058;2023-01-19T01:36:57;19.15;;;9.63;;
67108;SDS011;54027;50.786;7.058;2023-01-19T01:39:22;18.70;;;9.80;;
67108;SDS011;54027;50.786;7.058;2023-01-19T01:41:47;16.33;;;8.65;;
67108;SDS011;54027;50.786;7.058;2023-01-19T01:47:16;16.88;;;7.80;;
67108;SDS011;54027;50.786;7.058;2023-01-19T01:49:45;14.80;;;8.38;;
67108;SDS011;54027;50.786;7.058;2023-01-19T01:52:12;19.80;;;10.13;;
67108;SDS011;54027;50.786;7.058;2023-01-19T01:54:38;14.18;;;8.00;;
67108;SDS011;54027;50.786;7.058;2023-01-19T01:57:04;17.98;;;9.55;;
67108;SDS011;54027;50.786;7.058;2023-01-19T01:59:38;15.50;;;8.48;;
67108;SDS011;54027;50.786;7.058;2023-01-19T02:02:08;17.45;;;9.15;;
67108;SDS011;54027;50.786;7.058;2023-01-19T02:04:56;13.20;;;8.48;;
67108;SDS011;54027;50.786;7.058;2023-01-19T02:07:40;16.73;;;8.68;;
67108;SDS011;54027;50.786;7.058;2023-01-19T02:10:29;16.38;;;8.65;;
67108;SDS011;54027;50.786;7.058;2023-01-19T02:13:14;15.27;;;7.53;;
67108;SDS011;54027;50.786;7.058;2023-01-19T02:15:49;11.48;;;7.78;;
67108;SDS011;54027;50.786;7.058;2023-01-19T02:18:16;11.85;;;6.93;;
67108;SDS011;54027;50.786;7.058;2023-01-19T02:20:51;10.68;;;7.10;;
67108;SDS011;54027;50.786;7.058;2023-01-19T02:26:06;12.15;;;6.68;;
67108;SDS011;54027;50.786;7.058;2023-01-19T02:28:33;13.40;;;6.60;;
67108;SDS011;54027;50.786;7.058;2023-01-19T02:31:03;9.80;;;6.47;;
67108;SDS011;54027;50.786;7.058;2023-01-19T02:33:28;9.45;;;6.00;;
67108;SDS011;54027;50.786;7.058;2023-01-19T02:35:54;9.73;;;5.82;;
67108;SDS011;54027;50.786;7.058;2023-01-19T02:38:20;10.35;;;4.85;;
67108;SDS011;54027;50.786;7.058;2023-01-19T02:40:49;7.25;;;4.70;;
67108;SDS011;54027;50.786;7.058;2023-01-19T02:43:16;7.00;;;4.95;;
67108;SDS011;54027;50.786;7.058;2023-01-19T02:45:43;7.05;;;4.80;;
67108;SDS011;54027;50.786;7.058;2023-01-19T02:48:08;9.93;;;4.95;;
67108;SDS011;54027;50.786;7.058;2023-01-19T02:50:41;8.63;;;4.70;;
67108;SDS011;54027;50.786;7.058;2023-01-19T02:55:45;10.57;;;5.35;;
67108;SDS011;54027;50.786;7.058;2023-01-19T02:58:19;9.02;;;4.45;;
67108;SDS011;54027;50.786;7.058;2023-01-19T03:03:38;7.80;;;4.72;;
67108;SDS011;54027;50.786;7.058;2023-01-19T03:06:28;8.63;;;4.82;;
67108;SDS011;54027;50.786;7.058;2023-01-19T03:14:48;7.25;;;4.03;;
67108;SDS011;54027;50.786;7.058;2023-01-19T03:17:15;6.47;;;4.32;;
67108;SDS011;54027;50.786;7.058;2023-01-19T03:19:43;7.05;;;4.45;;
67108;SDS011;54027;50.786;7.058;2023-01-19T03:22:14;7.03;;;4.32;;
67108;SDS011;54027;50.786;7.058;2023-01-19T03:24:45;10.85;;;4.90;;
67108;SDS011;54027;50.786;7.058;2023-01-19T03:27:16;8.23;;;5.05;;
67108;SDS011;54027;50.786;7.058;2023-01-19T03:29:48;6.97;;;4.70;;
67108;SDS011;54027;50.786;7.058;2023-01-19T03:32:20;9.27;;;5.18;;
67108;SDS011;54027;50.786;7.058;2023-01-19T03:34:49;7.68;;;4.78;;
67108;SDS011;54027;50.786;7.058;2023-01-19T03:37:16;8.43;;;4.50;;
67108;SDS011;54027;50.786;7.058;2023-01-19T03:39:46;6.45;;;4.18;;
67108;SDS011;54027;50.786;7.058;2023-01-19T03:42:12;7.30;;;4.60;;
67108;SDS011;54027;50.786;7.058;2023-01-19T03:44:40;11.10;;;5.10;;
67108;SDS011;54027;50.786;7.058;2023-01-19T03:47:07;8.23;;;4.88;;
67108;SDS011;54027;50.786;7.058;2023-01-19T03:49:35;10.48;;;4.72;;
67108;SDS011;54027;50.786;7.058;2023-01-19T03:52:03;9.65;;;5.25;;
67108;SDS011;54027;50.786;7.058;2023-01-19T03:54:29;7.47;;;4.78;;
67108;SDS011;54027;50.786;7.058;2023-01-19T03:56:55;9.52;;;5.38;;
67108;SDS011;54027;50.786;7.058;2023-01-19T03:59:20;9.07;;;5.35;;
67108;SDS011;54027;50.786;7.058;2023-01-19T04:01:46;10.95;;;5.72;;
67108;SDS011;54027;50.786;7.058;2023-01-19T04:04:11;9.27;;;5.25;;
67108;SDS011;54027;50.786;7.058;2023-01-19T04:06:37;10.35;;;5.13;;
67108;SDS011;54027;50.786;7.058;2023-01-19T04:09:03;8.35;;;5.22;;
67108;SDS011;54027;50.786;7.058;2023-01-19T04:11:29;9.32;;;4.95;;
67108;SDS011;54027;50.786;7.058;2023-01-19T04:13:54;7.05;;;4.57;;
67108;SDS011;54027;50.786;7.058;2023-01-19T04:16:19;10.35;;;5.13;;
67108;SDS011;54027;50.786;7.058;2023-01-19T04:18:45;8.90;;;4.82;;
67108;SDS011;54027;50.786;7.058;2023-01-19T04:21:12;8.93;;;4.75;;
67108;SDS011;54027;50.786;7.058;2023-01-19T04:23:37;9.70;;;5.50;;
67108;SDS011;54027;50.786;7.058;2023-01-19T04:26:04;6.88;;;4.75;;
67108;SDS011;54027;50.786;7.058;2023-01-19T04:28:30;7.93;;;5.15;;
67108;SDS011;54027;50.786;7.058;2023-01-19T04:30:57;8.88;;;5.63;;
67108;SDS011;54027;50.786;7.058;2023-01-19T04:33:22;11.52;;;5.72;;
67108;SDS011;54027;50.786;7.058;2023-01-19T04:35:49;9.50;;;5.47;;
67108;SDS011;54027;50.786;7.058;2023-01-19T04:38:15;9.30;;;5.10;;
67108;SDS011;54027;50.786;7.058;2023-01-19T04:40:41;12.20;;;6.03;;
67108;SDS011;54027;50.786;7.058;2023-01-19T04:43:06;11.55;;;5.55;;
67108;SDS011;54027;50.786;7.058;2023-01-19T04:45:32;9.43;;;5.95;;
67108;SDS011;54027;50.786;7.058;2023-01-19T04:47:57;9.60;;;6.43;;
67108;SDS011;54027;50.786;7.058;2023-01-19T04:50:23;11.68;;;6.55;;
67108;SDS011;54027;50.786;7.058;2023-01-19T04:52:49;10.00;;;5.50;;
67108;SDS011;54027;50.786;7.058;2023-01-19T04:55:15;12.00;;;7.03;;
67108;SDS011;54027;50.786;7.058;2023-01-19T04:57:42;10.18;;;6.38;;
67108;SDS011;54027;50.786;7.058;2023-01-19T05:00:08;9.98;;;6.07;;
67108;SDS011;54027;50.786;7.058;2023-01-19T05:02:34;9.95;;;6.25;;
67108;SDS011;54027;50.786;7.058;2023-01-19T05:05:00;10.48;;;5.93;;
67108;SDS011;54027;50.786;7.058;2023-01-19T05:07:26;9.77;;;6.35;;
67108;SDS011;54027;50.786;7.058;2023-01-19T05:09:51;10.63;;;5.72;;
67108;SDS011;54027;50.786;7.058;2023-01-19T05:12:17;9.75;;;6.10;;
67108;SDS011;54027;50.786;7.058;2023-01-19T05:14:43;10.57;;;5.90;;
67108;SDS011;54027;50.786;7.058;2023-01-19T05:17:09;12.07;;;6.15;;
67108;SDS011;54027;50.786;7.058;2023-01-19T05:19:34;8.77;;;5.55;;
67108;SDS011;54027;50.786;7.058;2023-01-19T05:22:01;10.23;;;5.97;;
67108;SDS011;54027;50.786;7.058;2023-01-19T05:24:29;8.02;;;5.25;;
67108;SDS011;54027;50.786;7.058;2023-01-19T05:26:55;9.70;;;5.22;;
67108;SDS011;54027;50.786;7.058;2023-01-19T05:29:20;8.88;;;5.22;;
67108;SDS011;54027;50.786;7.058;2023-01-19T05:31:46;8.80;;;5.05;;
67108;SDS011;54027;50.786;7.058;2023-01-19T05:34:11;11.05;;;5.25;;
67108;SDS011;54027;50.786;7.058;2023-01-19T05:36:38;8.00;;;5.35;;
67108;SDS011;54027;50.786;7.058;2023-01-19T05:39:04;10.13;;;5.10;;
67108;SDS011;54027;50.786;7.058;2023-01-19T05:41:29;8.85;;;5.30;;
67108;SDS011;54027;50.786;7.058;2023-01-19T05:43:55;6.18;;;4.80;;
67108;SDS011;54027;50.786;7.058;2023-01-19T05:46:20;10.48;;;4.97;;
67108;SDS011;54027;50.786;7.058;2023-01-19T05:48:45;11.25;;;4.47;;
67108;SDS011;54027;50.786;7.058;2023-01-19T05:51:11;7.68;;;4.82;;
67108;SDS011;54027;50.786;7.058;2023-01-19T05:53:36;9.63;;;4.95;;
67108;SDS011;54027;50.786;7.058;2023-01-19T05:56:03;7.78;;;4.72;;
67108;SDS011;54027;50.786;7.058;2023-01-19T05:58:32;7.88;;;4.60;;
67108;SDS011;54027;50.786;7.058;2023-01-19T06:01:02;7.10;;;3.90;;
67108;SDS011;54027;50.786;7.058;2023-01-19T06:03:30;7.80;;;4.40;;
67108;SDS011;54027;50.786;7.058;2023-01-19T06:05:59;5.45;;;3.60;;
67108;SDS011;54027;50.786;7.058;2023-01-19T06:08:25;10.43;;;4.20;;
67108;SDS011;54027;50.786;7.058;2023-01-19T06:10:51;8.23;;;4.60;;
67108;SDS011;54027;50.786;7.058;2023-01-19T06:13:17;7.13;;;4.38;;
67108;SDS011;54027;50.786;7.058;2023-01-19T06:15:42;6.20;;;4.18;;
67108;SDS011;54027;50.786;7.058;2023-01-19T06:18:09;12.23;;;4.38;;
67108;SDS011;54027;50.786;7.058;2023-01-19T06:20:35;7.10;;;4.32;;
67108;SDS011;54027;50.786;7.058;2023-01-19T06:23:01;8.80;;;4.57;;
67108;SDS011;54027;50.786;7.058;2023-01-19T06:25:26;6.72;;;4.60;;
67108;SDS011;54027;50.786;7.058;2023-01-19T06:27:52;7.82;;;4.60;;
67108;SDS011;54027;50.786;7.058;2023-01-19T06:30:17;8.32;;;4.88;;
67108;SDS011;54027;50.786;7.058;2023-01-19T06:32:43;6.68;;;4.55;;
67108;SDS011;54027;50.786;7.058;2023-01-19T06:35:09;7.57;;;4.65;;
67108;SDS011;54027;50.786;7.058;2023-01-19T06:37:35;7.57;;;5.18;;
67108;SDS011;54027;50.786;7.058;2023-01-19T06:40:00;9.20;;;5.30;;
67108;SDS011;54027;50.786;7.058;2023-01-19T06:42:26;11.20;;;5.28;;
67108;SDS011;54027;50.786;7.058;2023-01-19T06:44:52;9.35;;;5.22;;
67108;SDS011;54027;50.786;7.058;2023-01-19T06:47:17;10.02;;;5.30;;
67108;SDS011;54027;50.786;7.058;2023-01-19T06:49:42;8.80;;;5.88;;
67108;SDS011;54027;50.786;7.058;2023-01-19T06:52:09;10.80;;;5.55;;
67108;SDS011;54027;50.786;7.058;2023-01-19T06:54:44;16.33;;;7.32;;
67108;SDS011;54027;50.786;7.058;2023-01-19T06:57:10;14.20;;;6.78;;
67108;SDS011;54027;50.786;7.058;2023-01-19T06:59:36;12.77;;;5.95;;
67108;SDS011;54027;50.786;7.058;2023-01-19T07:02:02;16.23;;;6.93;;
67108;SDS011;54027;50.786;7.058;2023-01-19T07:04:27;17.10;;;7.57;;
67108;SDS011;54027;50.786;7.058;2023-01-19T07:06:53;17.55;;;7.70;;
67108;SDS011;54027;50.786;7.058;2023-01-19T07:09:18;16.60;;;7.10;;
67108;SDS011;54027;50.786;7.058;2023-01-19T07:11:44;16.15;;;8.73;;
67108;SDS011;54027;50.786;7.058;2023-01-19T07:14:10;12.98;;;7.63;;
67108;SDS011;54027;50.786;7.058;2023-01-19T07:16:36;15.57;;;7.07;;
67108;SDS011;54027;50.786;7.058;2023-01-19T07:19:01;15.13;;;7.60;;
67108;SDS011;54027;50.786;7.058;2023-01-19T07:21:28;17.13;;;8.23;;
67108;SDS011;54027;50.786;7.058;2023-01-19T07:23:53;20.60;;;8.25;;
67108;SDS011;54027;50.786;7.058;2023-01-19T07:26:18;11.45;;;7.05;;
67108;SDS011;54027;50.786;7.058;2023-01-19T07:28:45;16.40;;;7.40;;
67108;SDS011;54027;50.786;7.058;2023-01-19T07:31:12;19.70;;;9.45;;
67108;SDS011;54027;50.786;7.058;2023-01-19T07:33:38;17.35;;;8.07;;
67108;SDS011;54027;50.786;7.058;2023-01-19T07:36:03;20.13;;;7.82;;
67108;SDS011;54027;50.786;7.058;2023-01-19T07:38:29;15.80;;;7.82;;
67108;SDS011;54027;50.786;7.058;2023-01-19T07:41:01;14.00;;;8.02;;
67108;SDS011;54027;50.786;7.058;2023-01-19T07:43:31;21.30;;;8.18;;
67108;SDS011;54027;50.786;7.058;2023-01-19T07:46:00;21.20;;;8.80;;
67108;SDS011;54027;50.786;7.058;2023-01-19T07:48:28;17.08;;;8.27;;
67108;SDS011;54027;50.786;7.058;2023-01-19T07:51:00;25.02;;;8.75;;
67108;SDS011;54027;50.786;7.058;2023-01-19T07:53:29;22.05;;;8.20;;
67108;SDS011;54027;50.786;7.058;2023-01-19T07:55:55;22.73;;;9.77;;
67108;SDS011;54027;50.786;7.058;2023-01-19T07:58:22;19.73;;;9.45;;
67108;SDS011;54027;50.786;7.058;2023-01-19T08:00:48;23.67;;;9.23;;
67108;SDS011;54027;50.786;7.058;2023-01-19T08:03:14;21.83;;;10.23;;
67108;SDS011;54027;50.786;7.058;2023-01-19T08:05:39;19.25;;;9.27;;
67108;SDS011;54027;50.786;7.058;2023-01-19T08:08:05;15.32;;;8.30;;
67108;SDS011;54027;50.786;7.058;2023-01-19T08:10:30;15.52;;;8.07;;
67108;SDS011;54027;50.786;7.058;2023-01-19T08:12:57;22.02;;;10.25;;
67108;SDS011;54027;50.786;7.058;2023-01-19T08:15:23;16.27;;;8.80;;
67108;SDS011;54027;50.786;7.058;2023-01-19T08:20:21;41.03;;;20.15;;
67108;SDS011;54027;50.786;7.058;2023-01-19T08:22:47;26.58;;;12.13;;
67108;SDS011;54027;50.786;7.058;2023-01-19T08:25:13;18.58;;;9.57;;
67108;SDS011;54027;50.786;7.058;2023-01-19T08:27:38;15.15;;;8.25;;
67108;SDS011;54027;50.786;7.058;2023-01-19T08:30:04;15.23;;;8.23;;
67108;SDS011;54027;50.786;7.058;2023-01-19T08:32:30;17.90;;;9.32;;
67108;SDS011;54027;50.786;7.058;2023-01-19T08:34:56;16.17;;;8.85;;
67108;SDS011;54027;50.786;7.058;2023-01-19T08:37:21;16.58;;;8.38;;
67108;SDS011;54027;50.786;7.058;2023-01-19T08:39:48;23.67;;;9.05;;
67108;SDS011;54027;50.786;7.058;2023-01-19T08:42:14;16.60;;;8.68;;
67108;SDS011;54027;50.786;7.058;2023-01-19T08:44:40;21.13;;;8.75;;
67108;SDS011;54027;50.786;7.058;2023-01-19T08:47:05;19.67;;;8.18;;
67108;SDS011;54027;50.786;7.058;2023-01-19T08:49:32;18.88;;;8.18;;
67108;SDS011;54027;50.786;7.058;2023-01-19T08:51:57;16.98;;;8.63;;
67108;SDS011;54027;50.786;7.058;2023-01-19T08:54:23;17.50;;;8.02;;
67108;SDS011;54027;50.786;7.058;2023-01-19T08:56:48;22.73;;;9.10;;
67108;SDS011;54027;50.786;7.058;2023-01-19T08:59:14;20.83;;;9.02;;
67108;SDS011;54027;50.786;7.058;2023-01-19T09:01:40;15.80;;;8.70;;
67108;SDS011;54027;50.786;7.058;2023-01-19T09:04:06;13.80;;;8.25;;
67108;SDS011;54027;50.786;7.058;2023-01-19T09:06:31;17.50;;;8.10;;
67108;SDS011;54027;50.786;7.058;2023-01-19T09:08:57;16.95;;;8.40;;
67108;SDS011;54027;50.786;7.058;2023-01-19T09:11:22;27.40;;;9.82;;
67108;SDS011;54027;50.786;7.058;2023-01-19T09:13:48;20.42;;;10.75;;
67108;SDS011;54027;50.786;7.058;2023-01-19T09:16:13;16.05;;;8.48;;
67108;SDS011;54027;50.786;7.058;2023-01-19T09:18:39;17.77;;;8.50;;
67108;SDS011;54027;50.786;7.058;2023-01-19T09:21:05;20.17;;;8.30;;
67108;SDS011;54027;50.786;7.058;2023-01-19T09:23:32;13.15;;;7.95;;
67108;SDS011;54027;50.786;7.058;2023-01-19T09:25:59;15.60;;;8.35;;
67108;SDS011;54027;50.786;7.058;2023-01-19T09:28:26;21.80;;;10.50;;
67108;SDS011;54027;50.786;7.058;2023-01-19T09:30:53;21.75;;;9.40;;
67108;SDS011;54027;50.786;7.058;2023-01-19T09:33:18;18.80;;;10.27;;
67108;SDS011;54027;50.786;7.058;2023-01-19T09:35:45;14.60;;;9.02;;
67108;SDS011;54027;50.786;7.058;2023-01-19T09:38:12;14.43;;;8.45;;
67108;SDS011;54027;50.786;7.058;2023-01-19T09:40:40;16.77;;;8.25;;
67108;SDS011;54027;50.786;7.058;2023-01-19T09:45:58;16.52;;;9.45;;
67108;SDS011;54027;50.786;7.058;2023-01-19T09:48:27;25.70;;;10.57;;
67108;SDS011;54027;50.786;7.058;2023-01-19T09:51:00;21.95;;;12.45;;
67108;SDS011;54027;50.786;7.058;2023-01-19T09:56:16;21.40;;;9.18;;
67108;SDS011;54027;50.786;7.058;2023-01-19T10:03:44;16.95;;;8.50;;
67108;SDS011;54027;50.786;7.058;2023-01-19T10:06:10;19.73;;;9.73;;
67108;SDS011;54027;50.786;7.058;2023-01-19T10:09:00;13.02;;;8.93;;
67108;SDS011;54027;50.786;7.058;2023-01-19T10:14:19;19.88;;;10.25;;
67108;SDS011;54027;50.786;7.058;2023-01-19T10:19:30;17.80;;;9.35;;
67108;SDS011;54027;50.786;7.058;2023-01-19T10:22:03;27.30;;;10.40;;
67108;SDS011;54027;50.786;7.058;2023-01-19T10:24:44;19.10;;;9.52;;
67108;SDS011;54027;50.786;7.058;2023-01-19T10:27:14;18.15;;;9.55;;
67108;SDS011;54027;50.786;7.058;2023-01-19T10:29:44;18.13;;;8.68;;
67108;SDS011;54027;50.786;7.058;2023-01-19T10:32:13;25.10;;;11.43;;
67108;SDS011;54027;50.786;7.058;2023-01-19T10:34:46;17.10;;;8.98;;
67108;SDS011;54027;50.786;7.058;2023-01-19T10:39:42;26.55;;;11.77;;
67108;SDS011;54027;50.786;7.058;2023-01-19T10:42:14;21.63;;;10.88;;
67108;SDS011;54027;50.786;7.058;2023-01-19T10:44:40;24.50;;;9.55;;
67108;SDS011;54027;50.786;7.058;2023-01-19T10:47:11;21.33;;;9.65;;
67108;SDS011;54027;50.786;7.058;2023-01-19T10:49:40;25.33;;;10.83;;
67108;SDS011;54027;50.786;7.058;2023-01-19T10:52:07;20.30;;;10.20;;
67108;SDS011;54027;50.786;7.058;2023-01-19T10:54:54;18.63;;;10.23;;
67108;SDS011;54027;50.786;7.058;2023-01-19T10:59:55;21.20;;;9.63;;
67108;SDS011;54027;50.786;7.058;2023-01-19T11:04:54;25.40;;;10.23;;
67108;SDS011;54027;50.786;7.058;2023-01-19T11:07:33;20.95;;;10.30;;
67108;SDS011;54027;50.786;7.058;2023-01-19T11:12:40;21.08;;;10.05;;
67108;SDS011;54027;50.786;7.058;2023-01-19T11:15:14;21.90;;;10.13;;
67108;SDS011;54027;50.786;7.058;2023-01-19T11:17:45;20.73;;;9.48;;
67108;SDS011;54027;50.786;7.058;2023-01-19T11:20:25;28.65;;;13.43;;
67108;SDS011;54027;50.786;7.058;2023-01-19T11:25:39;45.25;;;20.33;;
67108;SDS011;54027;50.786;7.058;2023-01-19T11:28:05;34.15;;;14.00;;
67108;SDS011;54027;50.786;7.058;2023-01-19T11:30:52;33.67;;;14.43;;
67108;SDS011;54027;50.786;7.058;2023-01-19T11:33:27;22.27;;;10.20;;
67108;SDS011;54027;50.786;7.058;2023-01-19T11:36:05;19.55;;;10.00;;
67108;SDS011;54027;50.786;7.058;2023-01-19T11:38:39;22.38;;;9.35;;
67108;SDS011;54027;50.786;7.058;2023-01-19T11:41:15;57.47;;;25.40;;
67108;SDS011;54027;50.786;7.058;2023-01-19T11:43:41;23.30;;;9.93;;
67108;SDS011;54027;50.786;7.058;2023-01-19T11:46:06;21.60;;;9.32;;
67108;SDS011;54027;50.786;7.058;2023-01-19T11:48:38;17.20;;;8.68;;
67108;SDS011;54027;50.786;7.058;2023-01-19T11:51:12;20.08;;;8.55;;
67108;SDS011;54027;50.786;7.058;2023-01-19T11:53:39;20.20;;;8.38;;
67108;SDS011;54027;50.786;7.058;2023-01-19T11:56:10;15.10;;;7.70;;
67108;SDS011;54027;50.786;7.058;2023-01-19T11:58:38;25.92;;;8.85;;
67108;SDS011;54027;50.786;7.058;2023-01-19T12:01:19;19.33;;;7.97;;
67108;SDS011;54027;50.786;7.058;2023-01-19T12:06:30;17.98;;;7.90;;
67108;SDS011;54027;50.786;7.058;2023-01-19T12:09:04;20.92;;;7.50;;
67108;SDS011;54027;50.786;7.058;2023-01-19T12:11:38;22.88;;;7.75;;
67108;SDS011;54027;50.786;7.058;2023-01-19T12:14:11;15.20;;;7.18;;
67108;SDS011;54027;50.786;7.058;2023-01-19T12:16:41;16.33;;;7.70;;
67108;SDS011;54027;50.786;7.058;2023-01-19T12:19:15;14.57;;;7.30;;
67108;SDS011;54027;50.786;7.058;2023-01-19T12:21:46;17.77;;;7.07;;
67108;SDS011;54027;50.786;7.058;2023-01-19T12:29:29;19.85;;;7.75;;
67108;SDS011;54027;50.786;7.058;2023-01-19T12:34:39;20.67;;;7.70;;
67108;SDS011;54027;50.786;7.058;2023-01-19T12:37:06;17.00;;;6.57;;
67108;SDS011;54027;50.786;7.058;2023-01-19T12:39:51;15.55;;;6.65;;
67108;SDS011;54027;50.786;7.058;2023-01-19T12:42:17;16.75;;;7.28;;
67108;SDS011;54027;50.786;7.058;2023-01-19T12:44:46;18.73;;;7.35;;
67108;SDS011;54027;50.786;7.058;2023-01-19T12:57:40;15.30;;;6.57;;
67108;SDS011;54027;50.786;7.058;2023-01-19T13:05:21;15.63;;;6.90;;
67108;SDS011;54027;50.786;7.058;2023-01-19T13:14:28;18.85;;;6.95;;
67108;SDS011;54027;50.786;7.058;2023-01-19T13:24:05;19.77;;;7.95;;
67108;SDS011;54027;50.786;7.058;2023-01-19T13:26:33;17.02;;;7.38;;
67108;SDS011;54027;50.786;7.058;2023-01-19T13:31:54;17.17;;;8.18;;
67108;SDS011;54027;50.786;7.058;2023-01-19T13:34:26;17.10;;;7.45;;
67108;SDS011;54027;50.786;7.058;2023-01-19T13:36:55;18.10;;;7.32;;
67108;SDS011;54027;50.786;7.058;2023-01-19T13:39:38;16.00;;;7.28;;
67108;SDS011;54027;50.786;7.058;2023-01-19T13:42:13;18.08;;;7.78;;
67108;SDS011;54027;50.786;7.058;2023-01-19T13:44:44;18.58;;;7.70;;
67108;SDS011;54027;50.786;7.058;2023-01-19T13:47:22;17.87;;;6.93;;
67108;SDS011;54027;50.786;7.058;2023-01-19T13:49:54;18.38;;;6.68;;
67108;SDS011;54027;50.786;7.058;2023-01-19T13:52:22;17.75;;;7.47;;
67108;SDS011;54027;50.786;7.058;2023-01-19T13:54:57;14.60;;;6.63;;
67108;SDS011;54027;50.786;7.058;2023-01-19T14:00:02;20.92;;;6.82;;
67108;SDS011;54027;50.786;7.058;2023-01-19T14:13:19;14.40;;;6.50;;
67108;SDS011;54027;50.786;7.058;2023-01-19T14:15:49;17.38;;;6.35;;
67108;SDS011;54027;50.786;7.058;2023-01-19T14:34:40;18.55;;;7.93;;
67108;SDS011;54027;50.786;7.058;2023-01-19T14:39:56;16.13;;;8.02;;
67108;SDS011;54027;50.786;7.058;2023-01-19T14:42:30;17.77;;;7.13;;
67108;SDS011;54027;50.786;7.058;2023-01-19T14:45:00;13.80;;;6.65;;
67108;SDS011;54027;50.786;7.058;2023-01-19T14:50:17;14.70;;;7.72;;
67108;SDS011;54027;50.786;7.058;2023-01-19T14:52:47;15.13;;;7.05;;
67108;SDS011;54027;50.786;7.058;2023-01-19T14:55:19;16.23;;;7.50;;
67108;SDS011;54027;50.786;7.058;2023-01-19T14:58:09;16.00;;;6.07;;
67108;SDS011;54027;50.786;7.058;2023-01-19T15:00:39;17.48;;;6.43;;
67108;SDS011;54027;50.786;7.058;2023-01-19T15:03:06;10.68;;;5.78;;
67108;SDS011;54027;50.786;7.058;2023-01-19T15:05:34;15.20;;;6.38;;
67108;SDS011;54027;50.786;7.058;2023-01-19T15:08:00;10.65;;;6.03;;
67108;SDS011;54027;50.786;7.058;2023-01-19T15:10:27;14.35;;;6.43;;
67108;SDS011;54027;50.786;7.058;2023-01-19T15:12:53;10.68;;;6.30;;
67108;SDS011;54027;50.786;7.058;2023-01-19T15:15:21;16.15;;;6.43;;
67108;SDS011;54027;50.786;7.058;2023-01-19T15:17:52;13.02;;;6.18;;
67108;SDS011;54027;50.786;7.058;2023-01-19T15:20:18;15.43;;;5.57;;
67108;SDS011;54027;50.786;7.058;2023-01-19T15:22:45;13.50;;;5.70;;
67108;SDS011;54027;50.786;7.058;2023-01-19T15:25:11;14.52;;;6.18;;
67108;SDS011;54027;50.786;7.058;2023-01-19T15:27:38;15.32;;;5.43;;
67108;SDS011;54027;50.786;7.058;2023-01-19T15:30:11;12.05;;;5.15;;
67108;SDS011;54027;50.786;7.058;2023-01-19T15:32:45;12.02;;;5.70;;
67108;SDS011;54027;50.786;7.058;2023-01-19T15:35:11;10.32;;;5.53;;
67108;SDS011;54027;50.786;7.058;2023-01-19T15:37:38;13.98;;;5.93;;
67108;SDS011;54027;50.786;7.058;2023-01-19T15:40:04;11.23;;;6.22;;
67108;SDS011;54027;50.786;7.058;2023-01-19T15:42:30;17.40;;;6.22;;
67108;SDS011;54027;50.786;7.058;2023-01-19T15:44:57;13.68;;;6.03;;
67108;SDS011;54027;50.786;7.058;2023-01-19T15:47:22;18.65;;;6.38;;
67108;SDS011;54027;50.786;7.058;2023-01-19T15:49:48;13.52;;;6.50;;
67108;SDS011;54027;50.786;7.058;2023-01-19T15:52:13;12.85;;;6.65;;
67108;SDS011;54027;50.786;7.058;2023-01-19T15:54:39;14.73;;;6.35;;
67108;SDS011;54027;50.786;7.058;2023-01-19T15:57:04;15.32;;;6.70;;
67108;SDS011;54027;50.786;7.058;2023-01-19T15:59:30;10.43;;;5.30;;
67108;SDS011;54027;50.786;7.058;2023-01-19T16:01:55;14.82;;;5.97;;
67108;SDS011;54027;50.786;7.058;2023-01-19T16:04:20;11.40;;;5.22;;
67108;SDS011;54027;50.786;7.058;2023-01-19T16:06:46;10.90;;;5.50;;
67108;SDS011;54027;50.786;7.058;2023-01-19T16:09:11;11.25;;;6.80;;
67108;SDS011;54027;50.786;7.058;2023-01-19T16:11:42;12.50;;;6.20;;
67108;SDS011;54027;50.786;7.058;2023-01-19T16:14:08;12.82;;;5.80;;
67108;SDS011;54027;50.786;7.058;2023-01-19T16:16:34;12.30;;;6.80;;
67108;SDS011;54027;50.786;7.058;2023-01-19T16:18:59;11.85;;;6.22;;
67108;SDS011;54027;50.786;7.058;2023-01-19T16:21:24;12.10;;;6.50;;
67108;SDS011;54027;50.786;7.058;2023-01-19T16:23:50;11.55;;;6.40;;
67108;SDS011;54027;50.786;7.058;2023-01-19T16:28:50;10.15;;;5.75;;
67108;SDS011;54027;50.786;7.058;2023-01-19T16:31:15;11.10;;;6.53;;
67108;SDS011;54027;50.786;7.058;2023-01-19T16:33:41;15.73;;;7.55;;
67108;SDS011;54027;50.786;7.058;2023-01-19T16:38:44;12.02;;;6.75;;
67108;SDS011;54027;50.786;7.058;2023-01-19T16:41:10;12.43;;;6.53;;
67108;SDS011;54027;50.786;7.058;2023-01-19T16:43:35;13.02;;;7.03;;
67108;SDS011;54027;50.786;7.058;2023-01-19T16:46:01;11.88;;;6.45;;
67108;SDS011;54027;50.786;7.058;2023-01-19T16:48:43;16.30;;;8.05;;
67108;SDS011;54027;50.786;7.058;2023-01-19T16:51:08;13.73;;;7.97;;
67108;SDS011;54027;50.786;7.058;2023-01-19T16:53:34;16.67;;;8.85;;